sensor_id;sensor_type;location;lat;lon;timestamp;P1;durP1;ratioP1;P2;durP2;ratioP2
2001;SDS011;1003;48.002;7.788;2022-12-26T00:00:04;2.37;;;2.07;;
2001;SDS011;1003;48.002;7.788;2022-12-26T00:02:36;3.40;;;2.13;;
2001;SDS011;1003;48.002;7.788;2022-12-26T00:05:03;2.73;;;2.33;;
2001;SDS011;1003;48.002;7.788;2022-12-26T00:07:32;2.97;;;2.10;;
2001;SDS011;1003;48.002;7.788;2022-12-26T00:09:59;1.80;;;1.70;;
2001;SDS011;1003;48.002;7.788;2022-12-26T00:12:26;2.53;;;2.00;;
2001;SDS011;1003;48.002;7.788;2022-12-26T00:14:53;2.13;;;1.83;;
2001;SDS011;1003;48.002;7.788;2022-12-26T00:17:20;3.93;;;2.43;;
2001;SDS011;1003;48.002;7.788;2022-12-26T00:19:47;1.70;;;1.60;;
2001;SDS011;1003;48.002;7.788;2022-12-26T00:22:15;2.37;;;2.00;;
2001;SDS011;1003;48.002;7.788;2022-12-26T00:24:43;2.10;;;1.90;;
2001;SDS011;1003;48.002;7.788;2022-12-26T00:27:10;2.40;;;1.90;;
2001;SDS011;1003;48.002;7.788;2022-12-26T00:29:37;2.50;;;1.80;;
2001;SDS011;1003;48.002;7.788;2022-12-26T00:32:04;3.63;;;2.00;;
2001;SDS011;1003;48.002;7.788;2022-12-26T00:34:31;2.37;;;2.10;;
2001;SDS011;1003;48.002;7.788;2022-12-26T00:36:58;3.60;;;2.00;;
2001;SDS011;1003;48.002;7.788;2022-12-26T00:39:25;2.03;;;1.87;;
2001;SDS011;1003;48.002;7.788;2022-12-26T00:41:54;2.47;;;2.03;;
2001;SDS011;1003;48.002;7.788;2022-12-26T00:44:21;2.57;;;2.10;;
2001;SDS011;1003;48.002;7.788;2022-12-26T00:46:48;3.00;;;1.90;;
2001;SDS011;1003;48.002;7.788;2022-12-26T00:49:15;3.60;;;2.20;;
2001;SDS011;1003;48.002;7.788;2022-12-26T00:51:42;2.50;;;1.90;;
2001;SDS011;1003;48.002;7.788;2022-12-26T00:54:09;2.50;;;2.00;;
2001;SDS011;1003;48.002;7.788;2022-12-26T00:56:36;1.97;;;1.77;;
2001;SDS011;1003;48.002;7.788;2022-12-26T00:59:04;2.10;;;1.80;;
2001;SDS011;1003;48.002;7.788;2022-12-26T01:01:31;2.67;;;2.00;;
2001;SDS011;1003;48.002;7.788;2022-12-26T01:03:58;2.63;;;1.70;;
2001;SDS011;1003;48.002;7.788;2022-12-26T01:06:25;2.17;;;1.97;;
2001;SDS011;1003;48.002;7.788;2022-12-26T01:08:52;2.17;;;1.97;;
2001;SDS011;1003;48.002;7.788;2022-12-26T01:11:20;2.20;;;1.97;;
2001;SDS011;1003;48.002;7.788;2022-12-26T01:14:01;4.07;;;2.10;;
2001;SDS011;1003;48.002;7.788;2022-12-26T01:16:30;3.07;;;2.10;;
2001;SDS011;1003;48.002;7.788;2022-12-26T01:18:57;2.13;;;1.93;;
2001;SDS011;1003;48.002;7.788;2022-12-26T01:21:24;2.53;;;1.83;;
2001;SDS011;1003;48.002;7.788;2022-12-26T01:23:51;4.47;;;2.00;;
2001;SDS011;1003;48.002;7.788;2022-12-26T01:26:18;2.63;;;2.10;;
2001;SDS011;1003;48.002;7.788;2022-12-26T01:28:45;3.93;;;2.07;;
2001;SDS011;1003;48.002;7.788;2022-12-26T01:31:13;1.80;;;1.70;;
2001;SDS011;1003;48.002;7.788;2022-12-26T01:33:42;2.77;;;1.90;;
2001;SDS011;1003;48.002;7.788;2022-12-26T01:36:09;2.10;;;1.90;;
2001;SDS011;1003;48.002;7.788;2022-12-26T01:38:36;2.40;;;2.17;;
2001;SDS011;1003;48.002;7.788;2022-12-26T01:41:03;3.07;;;2.00;;
2001;SDS011;1003;48.002;7.788;2022-12-26T01:43:47;3.07;;;2.20;;
2001;SDS011;1003;48.002;7.788;2022-12-26T01:46:20;3.27;;;1.90;;
2001;SDS011;1003;48.002;7.788;2022-12-26T01:48:53;3.37;;;2.10;;
2001;SDS011;1003;48.002;7.788;2022-12-26T01:51:25;2.80;;;2.10;;
2001;SDS011;1003;48.002;7.788;2022-12-26T01:54:01;2.03;;;1.83;;
2001;SDS011;1003;48.002;7.788;2022-12-26T01:56:36;2.20;;;2.00;;
2001;SDS011;1003;48.002;7.788;2022-12-26T01:59:07;2.03;;;1.80;;
2001;SDS011;1003;48.002;7.788;2022-12-26T02:01:40;3.37;;;2.00;;
2001;SDS011;1003;48.002;7.788;2022-12-26T02:04:12;2.10;;;1.90;;
2001;SDS011;1003;48.002;7.788;2022-12-26T02:07:01;5.00;;;2.37;;
2001;SDS011;1003;48.002;7.788;2022-12-26T02:09:30;1.93;;;1.80;;
2001;SDS011;1003;48.002;7.788;2022-12-26T02:12:00;1.80;;;1.70;;
2001;SDS011;1003;48.002;7.788;2022-12-26T02:14:34;2.57;;;1.80;;
2001;SDS011;1003;48.002;7.788;2022-12-26T02:17:02;2.60;;;1.73;;
2001;SDS011;1003;48.002;7.788;2022-12-26T02:19:33;2.57;;;2.10;;
2001;SDS011;1003;48.002;7.788;2022-12-26T02:25:34;2.17;;;1.87;;
2001;SDS011;1003;48.002;7.788;2022-12-26T02:28:32;2.50;;;2.07;;
2001;SDS011;1003;48.002;7.788;2022-12-26T02:31:34;2.13;;;1.97;;
2001;SDS011;1003;48.002;7.788;2022-12-26T02:34:14;2.33;;;2.03;;
2001;SDS011;1003;48.002;7.788;2022-12-26T02:36:55;2.13;;;1.70;;
2001;SDS011;1003;48.002;7.788;2022-12-26T02:39:49;2.10;;;1.80;;
2001;SDS011;1003;48.002;7.788;2022-12-26T02:42:40;2.10;;;1.87;;
2001;SDS011;1003;48.002;7.788;2022-12-26T02:45:23;2.07;;;1.87;;
2001;SDS011;1003;48.002;7.788;2022-12-26T02:48:20;4.70;;;1.90;;
2001;SDS011;1003;48.002;7.788;2022-12-26T02:51:03;3.23;;;2.00;;
2001;SDS011;1003;48.002;7.788;2022-12-26T02:54:05;2.77;;;2.20;;
2001;SDS011;1003;48.002;7.788;2022-12-26T02:57:02;1.73;;;1.63;;
2001;SDS011;1003;48.002;7.788;2022-12-26T02:59:51;2.53;;;2.00;;
2001;SDS011;1003;48.002;7.788;2022-12-26T03:02:42;2.20;;;2.00;;
2001;SDS011;1003;48.002;7.788;2022-12-26T03:05:37;3.70;;;2.07;;
2001;SDS011;1003;48.002;7.788;2022-12-26T03:08:27;2.17;;;1.97;;
2001;SDS011;1003;48.002;7.788;2022-12-26T03:11:16;3.00;;;1.80;;
2001;SDS011;1003;48.002;7.788;2022-12-26T03:14:04;2.60;;;1.90;;
2001;SDS011;1003;48.002;7.788;2022-12-26T03:16:42;2.10;;;1.70;;
2001;SDS011;1003;48.002;7.788;2022-12-26T03:19:33;3.00;;;2.27;;
2001;SDS011;1003;48.002;7.788;2022-12-26T03:22:23;2.33;;;2.00;;
2001;SDS011;1003;48.002;7.788;2022-12-26T03:24:56;2.23;;;1.90;;
2001;SDS011;1003;48.002;7.788;2022-12-26T03:27:44;2.43;;;1.97;;
2001;SDS011;1003;48.002;7.788;2022-12-26T03:30:12;2.83;;;1.83;;
2001;SDS011;1003;48.002;7.788;2022-12-26T03:32:57;2.03;;;1.80;;
2001;SDS011;1003;48.002;7.788;2022-12-26T03:35:24;2.20;;;1.93;;
2001;SDS011;1003;48.002;7.788;2022-12-26T03:38:00;2.57;;;1.90;;
2001;SDS011;1003;48.002;7.788;2022-12-26T03:40:39;2.53;;;1.90;;
2001;SDS011;1003;48.002;7.788;2022-12-26T03:43:44;2.87;;;1.80;;
2001;SDS011;1003;48.002;7.788;2022-12-26T03:46:52;3.20;;;2.13;;
2001;SDS011;1003;48.002;7.788;2022-12-26T03:49:52;2.43;;;1.87;;
2001;SDS011;1003;48.002;7.788;2022-12-26T03:52:47;3.07;;;2.00;;
2001;SDS011;1003;48.002;7.788;2022-12-26T03:55:48;2.27;;;2.07;;
2001;SDS011;1003;48.002;7.788;2022-12-26T03:58:41;2.40;;;1.73;;
2001;SDS011;1003;48.002;7.788;2022-12-26T04:01:33;2.03;;;1.80;;
2001;SDS011;1003;48.002;7.788;2022-12-26T04:04:22;2.77;;;1.80;;
2001;SDS011;1003;48.002;7.788;2022-12-26T04:07:13;2.20;;;2.00;;
2001;SDS011;1003;48.002;7.788;2022-12-26T04:10:05;1.77;;;1.60;;
2001;SDS011;1003;48.002;7.788;2022-12-26T04:12:58;2.67;;;2.03;;
2001;SDS011;1003;48.002;7.788;2022-12-26T04:15:49;1.90;;;1.80;;
2001;SDS011;1003;48.002;7.788;2022-12-26T04:18:44;2.67;;;1.77;;
2001;SDS011;1003;48.002;7.788;2022-12-26T04:21:38;2.07;;;1.90;;
2001;SDS011;1003;48.002;7.788;2022-12-26T04:24:30;2.43;;;2.00;;
2001;SDS011;1003;48.002;7.788;2022-12-26T04:27:25;3.43;;;2.10;;
2001;SDS011;1003;48.002;7.788;2022-12-26T04:30:15;3.17;;;1.83;;
2001;SDS011;1003;48.002;7.788;2022-12-26T04:33:01;2.90;;;1.90;;
2001;SDS011;1003;48.002;7.788;2022-12-26T04:35:54;2.30;;;1.90;;
2001;SDS011;1003;48.002;7.788;2022-12-26T04:38:46;3.13;;;2.17;;
2001;SDS011;1003;48.002;7.788;2022-12-26T04:41:35;2.73;;;2.10;;
2001;SDS011;1003;48.002;7.788;2022-12-26T04:44:23;1.90;;;1.70;;
2001;SDS011;1003;48.002;7.788;2022-12-26T04:46:55;2.20;;;2.00;;
2001;SDS011;1003;48.002;7.788;2022-12-26T04:49:22;2.20;;;2.00;;
2001;SDS011;1003;48.002;7.788;2022-12-26T04:52:08;2.17;;;1.80;;
2001;SDS011;1003;48.002;7.788;2022-12-26T04:54:38;2.67;;;2.17;;
2001;SDS011;1003;48.002;7.788;2022-12-26T04:57:06;2.17;;;1.97;;
2001;SDS011;1003;48.002;7.788;2022-12-26T04:59:33;2.47;;;2.10;;
2001;SDS011;1003;48.002;7.788;2022-12-26T05:02:02;2.70;;;2.00;;
2001;SDS011;1003;48.002;7.788;2022-12-26T05:04:51;2.03;;;1.83;;
2001;SDS011;1003;48.002;7.788;2022-12-26T05:07:36;2.47;;;1.90;;
2001;SDS011;1003;48.002;7.788;2022-12-26T05:10:21;3.17;;;2.30;;
2001;SDS011;1003;48.002;7.788;2022-12-26T05:12:51;2.70;;;2.00;;
2001;SDS011;1003;48.002;7.788;2022-12-26T05:15:20;3.23;;;2.10;;
2001;SDS011;1003;48.002;7.788;2022-12-26T05:17:49;2.73;;;1.97;;
2001;SDS011;1003;48.002;7.788;2022-12-26T05:20:33;3.93;;;2.13;;
2001;SDS011;1003;48.002;7.788;2022-12-26T05:23:19;3.20;;;2.30;;
2001;SDS011;1003;48.002;7.788;2022-12-26T05:26:08;2.20;;;2.00;;
2001;SDS011;1003;48.002;7.788;2022-12-26T05:28:58;3.23;;;1.97;;
2001;SDS011;1003;48.002;7.788;2022-12-26T05:31:27;2.50;;;1.90;;
2001;SDS011;1003;48.002;7.788;2022-12-26T05:33:57;2.10;;;1.90;;
2001;SDS011;1003;48.002;7.788;2022-12-26T05:36:33;5.63;;;2.20;;
2001;SDS011;1003;48.002;7.788;2022-12-26T05:39:04;2.00;;;1.80;;
2001;SDS011;1003;48.002;7.788;2022-12-26T05:41:32;4.33;;;2.23;;
2001;SDS011;1003;48.002;7.788;2022-12-26T05:43:59;2.10;;;1.90;;
2001;SDS011;1003;48.002;7.788;2022-12-26T05:46:26;2.20;;;1.80;;
2001;SDS011;1003;48.002;7.788;2022-12-26T05:48:53;3.17;;;1.90;;
2001;SDS011;1003;48.002;7.788;2022-12-26T05:51:22;3.87;;;1.90;;
2001;SDS011;1003;48.002;7.788;2022-12-26T05:53:49;4.73;;;2.20;;
2001;SDS011;1003;48.002;7.788;2022-12-26T05:56:17;2.30;;;2.00;;
2001;SDS011;1003;48.002;7.788;2022-12-26T05:58:46;3.07;;;2.23;;
2001;SDS011;1003;48.002;7.788;2022-12-26T06:01:14;2.63;;;2.10;;
2001;SDS011;1003;48.002;7.788;2022-12-26T06:03:45;2.00;;;1.80;;
2001;SDS011;1003;48.002;7.788;2022-12-26T06:06:14;2.30;;;2.10;;
2001;SDS011;1003;48.002;7.788;2022-12-26T06:08:44;2.50;;;1.80;;
2001;SDS011;1003;48.002;7.788;2022-12-26T06:11:13;3.37;;;1.90;;
2001;SDS011;1003;48.002;7.788;2022-12-26T06:13:42;2.00;;;1.80;;
2001;SDS011;1003;48.002;7.788;2022-12-26T06:16:11;3.10;;;2.30;;
2001;SDS011;1003;48.002;7.788;2022-12-26T06:18:40;1.97;;;1.80;;
2001;SDS011;1003;48.002;7.788;2022-12-26T06:21:08;2.17;;;1.70;;
2001;SDS011;1003;48.002;7.788;2022-12-26T06:23:37;2.47;;;2.00;;
2001;SDS011;1003;48.002;7.788;2022-12-26T06:26:06;2.03;;;1.83;;
2001;SDS011;1003;48.002;7.788;2022-12-26T06:28:36;1.90;;;1.80;;
2001;SDS011;1003;48.002;7.788;2022-12-26T06:31:05;2.77;;;1.77;;
2001;SDS011;1003;48.002;7.788;2022-12-26T06:33:35;2.00;;;1.80;;
2001;SDS011;1003;48.002;7.788;2022-12-26T06:36:03;2.77;;;1.90;;
2001;SDS011;1003;48.002;7.788;2022-12-26T06:38:33;3.07;;;2.13;;
2001;SDS011;1003;48.002;7.788;2022-12-26T06:41:03;3.47;;;1.93;;
2001;SDS011;1003;48.002;7.788;2022-12-26T06:43:32;2.73;;;1.93;;
2001;SDS011;1003;48.002;7.788;2022-12-26T06:46:00;2.40;;;1.80;;
2001;SDS011;1003;48.002;7.788;2022-12-26T06:48:30;2.40;;;2.07;;
2001;SDS011;1003;48.002;7.788;2022-12-26T06:51:03;1.90;;;1.80;;
2001;SDS011;1003;48.002;7.788;2022-12-26T06:53:32;2.10;;;1.70;;
2001;SDS011;1003;48.002;7.788;2022-12-26T06:56:04;2.27;;;1.90;;
2001;SDS011;1003;48.002;7.788;2022-12-26T06:58:34;2.93;;;2.07;;
2001;SDS011;1003;48.002;7.788;2022-12-26T07:01:05;3.03;;;2.00;;
2001;SDS011;1003;48.002;7.788;2022-12-26T07:03:34;3.53;;;2.13;;
2001;SDS011;1003;48.002;7.788;2022-12-26T07:06:02;2.23;;;2.03;;
2001;SDS011;1003;48.002;7.788;2022-12-26T07:08:31;2.83;;;1.97;;
2001;SDS011;1003;48.002;7.788;2022-12-26T07:10:59;2.40;;;2.20;;
2001;SDS011;1003;48.002;7.788;2022-12-26T07:13:26;2.33;;;1.93;;
2001;SDS011;1003;48.002;7.788;2022-12-26T07:15:55;2.57;;;1.80;;
2001;SDS011;1003;48.002;7.788;2022-12-26T07:18:24;2.30;;;2.10;;
2001;SDS011;1003;48.002;7.788;2022-12-26T07:20:51;2.30;;;2.03;;
2001;SDS011;1003;48.002;7.788;2022-12-26T07:23:18;3.53;;;2.50;;
2001;SDS011;1003;48.002;7.788;2022-12-26T07:25:45;2.57;;;2.00;;
2001;SDS011;1003;48.002;7.788;2022-12-26T07:28:13;4.07;;;2.17;;
2001;SDS011;1003;48.002;7.788;2022-12-26T07:30:44;2.70;;;2.20;;
2001;SDS011;1003;48.002;7.788;2022-12-26T07:33:13;4.70;;;2.67;;
2001;SDS011;1003;48.002;7.788;2022-12-26T07:35:41;4.27;;;2.60;;
2001;SDS011;1003;48.002;7.788;2022-12-26T07:38:08;3.73;;;2.10;;
2001;SDS011;1003;48.002;7.788;2022-12-26T07:40:36;4.07;;;2.77;;
2001;SDS011;1003;48.002;7.788;2022-12-26T07:43:04;5.47;;;2.57;;
2001;SDS011;1003;48.002;7.788;2022-12-26T07:45:31;3.97;;;2.33;;
2001;SDS011;1003;48.002;7.788;2022-12-26T07:47:58;4.40;;;2.77;;
2001;SDS011;1003;48.002;7.788;2022-12-26T07:50:26;2.83;;;2.30;;
2001;SDS011;1003;48.002;7.788;2022-12-26T07:52:54;4.60;;;2.57;;
2001;SDS011;1003;48.002;7.788;2022-12-26T07:55:21;3.20;;;2.60;;
2001;SDS011;1003;48.002;7.788;2022-12-26T07:57:48;2.67;;;2.30;;
2001;SDS011;1003;48.002;7.788;2022-12-26T08:00:16;2.23;;;2.00;;
2001;SDS011;1003;48.002;7.788;2022-12-26T08:02:46;3.67;;;2.23;;
2001;SDS011;1003;48.002;7.788;2022-12-26T08:05:15;3.57;;;2.27;;
2001;SDS011;1003;48.002;7.788;2022-12-26T08:07:46;3.63;;;2.27;;
2001;SDS011;1003;48.002;7.788;2022-12-26T08:10:14;2.57;;;2.37;;
2001;SDS011;1003;48.002;7.788;2022-12-26T08:12:41;2.83;;;2.47;;
2001;SDS011;1003;48.002;7.788;2022-12-26T08:15:10;2.90;;;2.60;;
2001;SDS011;1003;48.002;7.788;2022-12-26T08:17:37;3.07;;;2.67;;
2001;SDS011;1003;48.002;7.788;2022-12-26T08:20:05;6.10;;;2.90;;
2001;SDS011;1003;48.002;7.788;2022-12-26T08:22:33;3.40;;;2.50;;
2001;SDS011;1003;48.002;7.788;2022-12-26T08:25:01;5.13;;;2.60;;
2001;SDS011;1003;48.002;7.788;2022-12-26T08:27:29;4.63;;;2.83;;
2001;SDS011;1003;48.002;7.788;2022-12-26T08:29:57;6.37;;;2.60;;
2001;SDS011;1003;48.002;7.788;2022-12-26T08:32:24;4.47;;;2.70;;
2001;SDS011;1003;48.002;7.788;2022-12-26T08:34:51;4.33;;;2.80;;
2001;SDS011;1003;48.002;7.788;2022-12-26T08:37:19;3.43;;;2.80;;
2001;SDS011;1003;48.002;7.788;2022-12-26T08:39:48;3.40;;;2.87;;
2001;SDS011;1003;48.002;7.788;2022-12-26T08:42:18;4.30;;;2.90;;
2001;SDS011;1003;48.002;7.788;2022-12-26T08:44:45;5.37;;;3.10;;
2001;SDS011;1003;48.002;7.788;2022-12-26T08:47:12;4.37;;;2.90;;
2001;SDS011;1003;48.002;7.788;2022-12-26T08:49:40;4.13;;;3.37;;
2001;SDS011;1003;48.002;7.788;2022-12-26T08:52:07;4.37;;;3.10;;
2001;SDS011;1003;48.002;7.788;2022-12-26T08:54:35;3.67;;;3.00;;
2001;SDS011;1003;48.002;7.788;2022-12-26T08:57:02;5.03;;;3.00;;
2001;SDS011;1003;48.002;7.788;2022-12-26T08:59:33;6.17;;;3.33;;
2001;SDS011;1003;48.002;7.788;2022-12-26T09:02:00;5.83;;;3.60;;
2001;SDS011;1003;48.002;7.788;2022-12-26T09:04:28;5.77;;;3.60;;
2001;SDS011;1003;48.002;7.788;2022-12-26T09:06:55;5.03;;;3.70;;
2001;SDS011;1003;48.002;7.788;2022-12-26T09:09:22;5.10;;;3.07;;
2001;SDS011;1003;48.002;7.788;2022-12-26T09:11:49;4.40;;;3.40;;
2001;SDS011;1003;48.002;7.788;2022-12-26T09:14:16;4.67;;;3.10;;
2001;SDS011;1003;48.002;7.788;2022-12-26T09:16:45;4.53;;;3.23;;
2001;SDS011;1003;48.002;7.788;2022-12-26T09:19:14;6.23;;;3.93;;
2001;SDS011;1003;48.002;7.788;2022-12-26T09:21:42;6.83;;;3.43;;
2001;SDS011;1003;48.002;7.788;2022-12-26T09:24:10;4.87;;;3.33;;
2001;SDS011;1003;48.002;7.788;2022-12-26T09:26:39;4.47;;;3.60;;
2001;SDS011;1003;48.002;7.788;2022-12-26T09:29:08;5.37;;;3.63;;
2001;SDS011;1003;48.002;7.788;2022-12-26T09:31:36;5.83;;;3.77;;
2001;SDS011;1003;48.002;7.788;2022-12-26T09:34:04;6.63;;;3.80;;
2001;SDS011;1003;48.002;7.788;2022-12-26T09:36:33;7.97;;;4.40;;
2001;SDS011;1003;48.002;7.788;2022-12-26T09:39:03;7.67;;;4.80;;
2001;SDS011;1003;48.002;7.788;2022-12-26T09:41:35;7.83;;;4.07;;
2001;SDS011;1003;48.002;7.788;2022-12-26T09:44:24;6.80;;;3.83;;
2001;SDS011;1003;48.002;7.788;2022-12-26T09:47:04;5.37;;;3.83;;
2001;SDS011;1003;48.002;7.788;2022-12-26T09:49:48;6.20;;;3.83;;
2001;SDS011;1003;48.002;7.788;2022-12-26T09:52:33;7.03;;;3.80;;
2001;SDS011;1003;48.002;7.788;2022-12-26T09:55:15;5.47;;;3.73;;
2001;SDS011;1003;48.002;7.788;2022-12-26T09:57:56;5.13;;;3.73;;
2001;SDS011;1003;48.002;7.788;2022-12-26T10:00:30;5.23;;;3.70;;
2001;SDS011;1003;48.002;7.788;2022-12-26T10:03:15;6.77;;;4.30;;
2001;SDS011;1003;48.002;7.788;2022-12-26T10:05:46;5.23;;;3.73;;
2001;SDS011;1003;48.002;7.788;2022-12-26T10:08:36;4.80;;;3.50;;
2001;SDS011;1003;48.002;7.788;2022-12-26T10:11:48;6.47;;;4.60;;
2001;SDS011;1003;48.002;7.788;2022-12-26T10:14:34;5.97;;;4.10;;
2001;SDS011;1003;48.002;7.788;2022-12-26T10:17:10;6.70;;;4.67;;
2001;SDS011;1003;48.002;7.788;2022-12-26T10:19:53;6.70;;;4.57;;
2001;SDS011;1003;48.002;7.788;2022-12-26T10:22:53;7.47;;;5.30;;
2001;SDS011;1003;48.002;7.788;2022-12-26T10:26:06;4.20;;;3.57;;
2001;SDS011;1003;48.002;7.788;2022-12-26T10:28:40;6.60;;;4.50;;
2001;SDS011;1003;48.002;7.788;2022-12-26T10:31:15;6.20;;;4.33;;
2001;SDS011;1003;48.002;7.788;2022-12-26T10:33:49;7.07;;;4.30;;
2001;SDS011;1003;48.002;7.788;2022-12-26T10:36:30;6.47;;;4.10;;
2001;SDS011;1003;48.002;7.788;2022-12-26T10:39:03;6.77;;;4.07;;
2001;SDS011;1003;48.002;7.788;2022-12-26T10:41:41;5.43;;;3.53;;
2001;SDS011;1003;48.002;7.788;2022-12-26T10:44:12;8.77;;;3.60;;
2001;SDS011;1003;48.002;7.788;2022-12-26T10:49:48;5.83;;;3.30;;
2001;SDS011;1003;48.002;7.788;2022-12-26T10:52:16;5.07;;;3.07;;
2001;SDS011;1003;48.002;7.788;2022-12-26T10:54:50;4.73;;;3.00;;
2001;SDS011;1003;48.002;7.788;2022-12-26T10:57:22;5.30;;;3.40;;
2001;SDS011;1003;48.002;7.788;2022-12-26T10:59:53;4.10;;;2.70;;
2001;SDS011;1003;48.002;7.788;2022-12-26T11:02:22;3.00;;;2.20;;
2001;SDS011;1003;48.002;7.788;2022-12-26T11:05:00;2.43;;;2.13;;
2001;SDS011;1003;48.002;7.788;2022-12-26T11:07:33;2.47;;;2.27;;
2001;SDS011;1003;48.002;7.788;2022-12-26T11:10:13;2.87;;;2.23;;
2001;SDS011;1003;48.002;7.788;2022-12-26T11:12:46;3.53;;;2.10;;
2001;SDS011;1003;48.002;7.788;2022-12-26T11:15:18;2.07;;;1.80;;
2001;SDS011;1003;48.002;7.788;2022-12-26T11:17:53;1.67;;;1.53;;
2001;SDS011;1003;48.002;7.788;2022-12-26T11:20:41;2.00;;;1.80;;
2001;SDS011;1003;48.002;7.788;2022-12-26T11:23:23;2.07;;;1.80;;
2001;SDS011;1003;48.002;7.788;2022-12-26T11:25:54;2.40;;;1.80;;
2001;SDS011;1003;48.002;7.788;2022-12-26T11:28:25;2.17;;;1.98;;
2001;SDS011;1003;48.002;7.788;2022-12-26T11:30:56;1.60;;;1.50;;
2001;SDS011;1003;48.002;7.788;2022-12-26T11:33:27;2.37;;;1.57;;
2001;SDS011;1003;48.002;7.788;2022-12-26T11:36:05;2.10;;;1.30;;
2001;SDS011;1003;48.002;7.788;2022-12-26T11:38:44;2.77;;;1.60;;
2001;SDS011;1003;48.002;7.788;2022-12-26T11:41:18;2.80;;;1.50;;
2001;SDS011;1003;48.002;7.788;2022-12-26T11:44:14;1.37;;;1.27;;
2001;SDS011;1003;48.002;7.788;2022-12-26T11:46:50;1.00;;;0.83;;
2001;SDS011;1003;48.002;7.788;2022-12-26T11:49:25;2.53;;;1.70;;
2001;SDS011;1003;48.002;7.788;2022-12-26T11:51:58;2.57;;;1.60;;
2001;SDS011;1003;48.002;7.788;2022-12-26T11:54:29;1.30;;;1.20;;
2001;SDS011;1003;48.002;7.788;2022-12-26T11:57:12;1.53;;;1.20;;
2001;SDS011;1003;48.002;7.788;2022-12-26T11:59:46;2.40;;;1.33;;
2001;SDS011;1003;48.002;7.788;2022-12-26T12:02:23;2.10;;;1.33;;
2001;SDS011;1003;48.002;7.788;2022-12-26T12:04:54;2.87;;;1.60;;
2001;SDS011;1003;48.002;7.788;2022-12-26T12:07:45;1.80;;;1.40;;
2001;SDS011;1003;48.002;7.788;2022-12-26T12:13:49;1.83;;;1.40;;
2001;SDS011;1003;48.002;7.788;2022-12-26T12:16:46;1.67;;;1.33;;
2001;SDS011;1003;48.002;7.788;2022-12-26T12:19:37;2.17;;;1.23;;
2001;SDS011;1003;48.002;7.788;2022-12-26T12:22:25;1.27;;;1.10;;
2001;SDS011;1003;48.002;7.788;2022-12-26T12:25:34;2.33;;;1.43;;
2001;SDS011;1003;48.002;7.788;2022-12-26T12:31:59;1.40;;;1.30;;
2001;SDS011;1003;48.002;7.788;2022-12-26T12:34:40;1.40;;;1.30;;
2001;SDS011;1003;48.002;7.788;2022-12-26T12:37:31;1.57;;;1.47;;
2001;SDS011;1003;48.002;7.788;2022-12-26T12:40:18;1.43;;;1.27;;
2001;SDS011;1003;48.002;7.788;2022-12-26T12:42:59;1.63;;;1.17;;
2001;SDS011;1003;48.002;7.788;2022-12-26T12:45:41;1.87;;;1.30;;
2001;SDS011;1003;48.002;7.788;2022-12-26T12:48:38;2.63;;;1.40;;
2001;SDS011;1003;48.002;7.788;2022-12-26T12:51:26;1.53;;;1.20;;
2001;SDS011;1003;48.002;7.788;2022-12-26T12:57:19;1.40;;;1.13;;
2001;SDS011;1003;48.002;7.788;2022-12-26T13:00:00;1.67;;;1.30;;
2001;SDS011;1003;48.002;7.788;2022-12-26T13:02:41;1.90;;;1.03;;
2001;SDS011;1003;48.002;7.788;2022-12-26T13:05:22;1.73;;;1.20;;
2001;SDS011;1003;48.002;7.788;2022-12-26T13:08:01;2.30;;;1.43;;
2001;SDS011;1003;48.002;7.788;2022-12-26T13:10:36;1.63;;;1.27;;
2001;SDS011;1003;48.002;7.788;2022-12-26T13:13:15;1.30;;;1.17;;
2001;SDS011;1003;48.002;7.788;2022-12-26T13:15:51;1.30;;;1.20;;
2001;SDS011;1003;48.002;7.788;2022-12-26T13:18:27;1.20;;;1.10;;
2001;SDS011;1003;48.002;7.788;2022-12-26T13:21:03;1.03;;;0.93;;
2001;SDS011;1003;48.002;7.788;2022-12-26T13:23:35;0.93;;;0.93;;
2001;SDS011;1003;48.002;7.788;2022-12-26T13:26:28;1.50;;;1.40;;
2001;SDS011;1003;48.002;7.788;2022-12-26T13:29:03;1.67;;;1.30;;
2001;SDS011;1003;48.002;7.788;2022-12-26T13:31:38;1.53;;;1.00;;
2001;SDS011;1003;48.002;7.788;2022-12-26T13:34:09;1.10;;;1.00;;
2001;SDS011;1003;48.002;7.788;2022-12-26T13:36:42;1.10;;;0.90;;
2001;SDS011;1003;48.002;7.788;2022-12-26T13:39:25;1.40;;;1.30;;
2001;SDS011;1003;48.002;7.788;2022-12-26T13:42:16;1.07;;;0.97;;
2001;SDS011;1003;48.002;7.788;2022-12-26T13:51:53;1.53;;;0.90;;
2001;SDS011;1003;48.002;7.788;2022-12-26T13:58:07;2.53;;;1.30;;
2001;SDS011;1003;48.002;7.788;2022-12-26T14:01:01;1.30;;;1.20;;
2001;SDS011;1003;48.002;7.788;2022-12-26T14:03:45;1.97;;;1.37;;
2001;SDS011;1003;48.002;7.788;2022-12-26T14:06:40;0.90;;;0.90;;
2001;SDS011;1003;48.002;7.788;2022-12-26T14:09:37;1.20;;;1.10;;
2001;SDS011;1003;48.002;7.788;2022-12-26T14:15:31;1.23;;;1.13;;
2001;SDS011;1003;48.002;7.788;2022-12-26T14:18:26;1.73;;;1.20;;
2001;SDS011;1003;48.002;7.788;2022-12-26T14:21:18;1.92;;;1.25;;
2001;SDS011;1003;48.002;7.788;2022-12-26T14:24:02;5.13;;;2.50;;
2001;SDS011;1003;48.002;7.788;2022-12-26T14:26:45;3.50;;;2.07;;
2001;SDS011;1003;48.002;7.788;2022-12-26T14:29:23;1.63;;;1.40;;
2001;SDS011;1003;48.002;7.788;2022-12-26T14:32:05;1.33;;;1.23;;
2001;SDS011;1003;48.002;7.788;2022-12-26T14:34:59;1.57;;;1.40;;
2001;SDS011;1003;48.002;7.788;2022-12-26T14:37:41;1.60;;;1.40;;
2001;SDS011;1003;48.002;7.788;2022-12-26T14:40:23;1.13;;;1.10;;
2001;SDS011;1003;48.002;7.788;2022-12-26T14:43:22;3.73;;;2.40;;
2001;SDS011;1003;48.002;7.788;2022-12-26T14:45:57;2.17;;;1.47;;
2001;SDS011;1003;48.002;7.788;2022-12-26T14:48:44;1.50;;;1.40;;
2001;SDS011;1003;48.002;7.788;2022-12-26T14:51:28;2.27;;;1.50;;
2001;SDS011;1003;48.002;7.788;2022-12-26T15:06:24;2.13;;;1.85;;
2001;SDS011;1003;48.002;7.788;2022-12-26T15:16:02;1.70;;;1.60;;
2001;SDS011;1003;48.002;7.788;2022-12-26T15:26:23;2.40;;;1.70;;
2001;SDS011;1003;48.002;7.788;2022-12-26T15:29:25;2.03;;;1.63;;
2001;SDS011;1003;48.002;7.788;2022-12-26T15:32:19;2.87;;;1.60;;
2001;SDS011;1003;48.002;7.788;2022-12-26T15:35:04;2.17;;;1.77;;
2001;SDS011;1003;48.002;7.788;2022-12-26T15:37:53;2.40;;;2.17;;
2001;SDS011;1003;48.002;7.788;2022-12-26T15:40:41;2.63;;;1.80;;
2001;SDS011;1003;48.002;7.788;2022-12-26T15:43:23;1.50;;;1.40;;
2001;SDS011;1003;48.002;7.788;2022-12-26T15:46:13;1.95;;;1.73;;
2001;SDS011;1003;48.002;7.788;2022-12-26T15:48:53;1.50;;;1.40;;
2001;SDS011;1003;48.002;7.788;2022-12-26T15:51:50;2.00;;;1.77;;
2001;SDS011;1003;48.002;7.788;2022-12-26T15:54:40;2.33;;;1.60;;
2001;SDS011;1003;48.002;7.788;2022-12-26T15:57:31;1.50;;;1.40;;
2001;SDS011;1003;48.002;7.788;2022-12-26T16:00:12;2.27;;;1.60;;
2001;SDS011;1003;48.002;7.788;2022-12-26T16:02:44;2.77;;;1.80;;
2001;SDS011;1003;48.002;7.788;2022-12-26T16:11:28;2.43;;;1.80;;
2001;SDS011;1003;48.002;7.788;2022-12-26T16:14:12;2.23;;;1.87;;
2001;SDS011;1003;48.002;7.788;2022-12-26T16:16:51;2.03;;;1.80;;
2001;SDS011;1003;48.002;7.788;2022-12-26T16:19:19;3.23;;;1.87;;
2001;SDS011;1003;48.002;7.788;2022-12-26T16:21:53;2.30;;;1.90;;
2001;SDS011;1003;48.002;7.788;2022-12-26T16:24:43;3.70;;;1.97;;
2001;SDS011;1003;48.002;7.788;2022-12-26T16:27:16;3.17;;;2.07;;
2001;SDS011;1003;48.002;7.788;2022-12-26T16:29:49;3.40;;;2.10;;
2001;SDS011;1003;48.002;7.788;2022-12-26T16:32:20;3.00;;;2.10;;
2001;SDS011;1003;48.002;7.788;2022-12-26T16:34:56;2.40;;;1.93;;
2001;SDS011;1003;48.002;7.788;2022-12-26T16:37:25;3.63;;;2.60;;
2001;SDS011;1003;48.002;7.788;2022-12-26T16:40:04;3.47;;;2.30;;
2001;SDS011;1003;48.002;7.788;2022-12-26T16:42:44;2.07;;;1.80;;
2001;SDS011;1003;48.002;7.788;2022-12-26T16:45:21;2.20;;;2.00;;
2001;SDS011;1003;48.002;7.788;2022-12-26T16:47:50;5.33;;;3.57;;
2001;SDS011;1003;48.002;7.788;2022-12-26T16:50:19;3.17;;;2.17;;
2001;SDS011;1003;48.002;7.788;2022-12-26T16:53:01;2.87;;;2.20;;
2001;SDS011;1003;48.002;7.788;2022-12-26T16:55:37;2.30;;;1.83;;
2001;SDS011;1003;48.002;7.788;2022-12-26T16:58:11;4.67;;;2.07;;
2001;SDS011;1003;48.002;7.788;2022-12-26T17:00:49;3.67;;;2.30;;
2001;SDS011;1003;48.002;7.788;2022-12-26T17:03:29;3.67;;;2.30;;
2001;SDS011;1003;48.002;7.788;2022-12-26T17:06:05;2.83;;;2.30;;
2001;SDS011;1003;48.002;7.788;2022-12-26T17:08:40;3.40;;;2.20;;
2001;SDS011;1003;48.002;7.788;2022-12-26T17:11:10;3.37;;;2.10;;
2001;SDS011;1003;48.002;7.788;2022-12-26T17:13:38;2.37;;;2.13;;
2001;SDS011;1003;48.002;7.788;2022-12-26T17:16:12;2.33;;;2.10;;